Terminal Aerodrome Forecast
Issued by NWS

Home | Current Version | Previous Version | Text Only | Print | Product List | Glossary On
Versions: 1 2 3 4 5 6 7 8 9 10 11 12 13
291
FTUS43 KICT 152349
TAFRSL
TAF
KRSL 152349Z 1600/1624 07006KT 6SM -FZDZ BR OVC003
     FM160300 05008KT 5SM -FZRA BR OVC003
      TEMPO 1604/1608 2SM FZRA BR OVC002
     FM161400 01013KT 3SM FZRAPL OVC003
     FM161900 34014KT 1SM -FZRA OVC003
     FM162100 33014KT P6SM OVC003=

USA.gov is the U.S. government's official web portal to all federal, state and local government web resources and services.